sensor_id;sensor_type;location;lat;lon;timestamp;P1;durP1;ratioP1;P2;durP2;ratioP2
5349;SDS011;2697;42.144;24.794;2022-09-28T00:00:05;17.63;;;8.80;;
5349;SDS011;2697;42.144;24.794;2022-09-28T00:02:31;21.53;;;7.63;;
5349;SDS011;2697;42.144;24.794;2022-09-28T00:04:57;11.10;;;7.70;;
5349;SDS011;2697;42.144;24.794;2022-09-28T00:07:22;13.90;;;7.60;;
5349;SDS011;2697;42.144;24.794;2022-09-28T00:09:48;10.80;;;7.73;;
5349;SDS011;2697;42.144;24.794;2022-09-28T00:12:13;17.10;;;9.40;;
5349;SDS011;2697;42.144;24.794;2022-09-28T00:14:39;18.37;;;7.80;;
5349;SDS011;2697;42.144;24.794;2022-09-28T00:17:04;11.87;;;7.30;;
5349;SDS011;2697;42.144;24.794;2022-09-28T00:19:30;12.77;;;8.47;;
5349;SDS011;2697;42.144;24.794;2022-09-28T00:21:55;12.73;;;8.80;;
5349;SDS011;2697;42.144;24.794;2022-09-28T00:24:21;11.03;;;6.53;;
5349;SDS011;2697;42.144;24.794;2022-09-28T00:31:49;10.30;;;6.50;;
5349;SDS011;2697;42.144;24.794;2022-09-28T00:34:16;14.73;;;7.97;;
5349;SDS011;2697;42.144;24.794;2022-09-28T00:36:43;19.87;;;8.40;;
5349;SDS011;2697;42.144;24.794;2022-09-28T00:39:10;17.57;;;7.50;;
5349;SDS011;2697;42.144;24.794;2022-09-28T00:41:37;18.87;;;8.23;;
5349;SDS011;2697;42.144;24.794;2022-09-28T00:50:00;14.40;;;8.53;;
5349;SDS011;2697;42.144;24.794;2022-09-28T00:52:32;18.53;;;9.60;;
5349;SDS011;2697;42.144;24.794;2022-09-28T00:55:04;19.60;;;9.10;;
5349;SDS011;2697;42.144;24.794;2022-09-28T00:57:33;20.47;;;9.43;;
5349;SDS011;2697;42.144;24.794;2022-09-28T01:00:01;14.87;;;9.50;;
5349;SDS011;2697;42.144;24.794;2022-09-28T01:02:28;21.63;;;10.20;;
5349;SDS011;2697;42.144;24.794;2022-09-28T01:04:54;19.00;;;9.63;;
5349;SDS011;2697;42.144;24.794;2022-09-28T01:07:21;16.33;;;8.97;;
5349;SDS011;2697;42.144;24.794;2022-09-28T01:09:46;20.13;;;10.37;;
5349;SDS011;2697;42.144;24.794;2022-09-28T01:12:12;18.40;;;9.37;;
5349;SDS011;2697;42.144;24.794;2022-09-28T01:14:38;18.10;;;9.47;;
5349;SDS011;2697;42.144;24.794;2022-09-28T01:17:06;11.80;;;8.10;;
5349;SDS011;2697;42.144;24.794;2022-09-28T01:25:10;20.37;;;11.00;;
5349;SDS011;2697;42.144;24.794;2022-09-28T01:27:41;24.73;;;11.07;;
5349;SDS011;2697;42.144;24.794;2022-09-28T01:30:15;19.63;;;10.20;;
5349;SDS011;2697;42.144;24.794;2022-09-28T01:32:46;22.40;;;11.43;;
5349;SDS011;2697;42.144;24.794;2022-09-28T01:35:30;17.07;;;10.73;;
5349;SDS011;2697;42.144;24.794;2022-09-28T01:38:04;17.87;;;10.13;;
5349;SDS011;2697;42.144;24.794;2022-09-28T01:40:36;19.90;;;9.73;;
5349;SDS011;2697;42.144;24.794;2022-09-28T01:43:11;19.93;;;9.97;;
5349;SDS011;2697;42.144;24.794;2022-09-28T01:48:21;13.47;;;9.50;;
5349;SDS011;2697;42.144;24.794;2022-09-28T01:50:56;14.13;;;8.83;;
5349;SDS011;2697;42.144;24.794;2022-09-28T01:53:40;17.80;;;8.20;;
5349;SDS011;2697;42.144;24.794;2022-09-28T01:56:11;15.50;;;8.50;;
5349;SDS011;2697;42.144;24.794;2022-09-28T01:58:47;20.70;;;9.10;;
5349;SDS011;2697;42.144;24.794;2022-09-28T02:01:28;16.87;;;10.10;;
5349;SDS011;2697;42.144;24.794;2022-09-28T02:04:07;15.17;;;9.47;;
5349;SDS011;2697;42.144;24.794;2022-09-28T02:06:49;16.13;;;11.30;;
5349;SDS011;2697;42.144;24.794;2022-09-28T02:09:35;19.57;;;10.60;;
5349;SDS011;2697;42.144;24.794;2022-09-28T02:12:10;19.93;;;9.90;;
5349;SDS011;2697;42.144;24.794;2022-09-28T02:14:40;17.17;;;10.43;;
5349;SDS011;2697;42.144;24.794;2022-09-28T02:17:09;13.33;;;8.63;;
5349;SDS011;2697;42.144;24.794;2022-09-28T02:19:35;51.77;;;10.93;;
5349;SDS011;2697;42.144;24.794;2022-09-28T02:27:12;17.10;;;9.87;;
5349;SDS011;2697;42.144;24.794;2022-09-28T02:29:38;19.73;;;11.27;;
5349;SDS011;2697;42.144;24.794;2022-09-28T02:32:04;21.97;;;12.30;;
5349;SDS011;2697;42.144;24.794;2022-09-28T02:34:29;21.87;;;11.33;;
5349;SDS011;2697;42.144;24.794;2022-09-28T02:36:55;22.03;;;12.70;;
5349;SDS011;2697;42.144;24.794;2022-09-28T02:39:21;27.70;;;13.53;;
5349;SDS011;2697;42.144;24.794;2022-09-28T02:50:13;20.93;;;13.03;;
5349;SDS011;2697;42.144;24.794;2022-09-28T03:03:48;30.07;;;13.23;;
5349;SDS011;2697;42.144;24.794;2022-09-28T03:06:25;18.93;;;10.47;;
5349;SDS011;2697;42.144;24.794;2022-09-28T03:09:03;15.63;;;9.73;;
5349;SDS011;2697;42.144;24.794;2022-09-28T03:11:56;16.73;;;9.30;;
5349;SDS011;2697;42.144;24.794;2022-09-28T03:14:24;16.13;;;9.60;;
5349;SDS011;2697;42.144;24.794;2022-09-28T03:16:50;13.70;;;8.80;;
5349;SDS011;2697;42.144;24.794;2022-09-28T03:19:16;13.67;;;8.87;;
5349;SDS011;2697;42.144;24.794;2022-09-28T03:21:46;13.70;;;8.77;;
5349;SDS011;2697;42.144;24.794;2022-09-28T03:24:11;22.00;;;8.80;;
5349;SDS011;2697;42.144;24.794;2022-09-28T03:26:37;14.60;;;9.37;;
5349;SDS011;2697;42.144;24.794;2022-09-28T03:29:03;21.37;;;9.80;;
5349;SDS011;2697;42.144;24.794;2022-09-28T03:31:29;20.80;;;13.10;;
5349;SDS011;2697;42.144;24.794;2022-09-28T03:33:55;33.57;;;15.00;;
5349;SDS011;2697;42.144;24.794;2022-09-28T03:36:20;36.97;;;15.70;;
5349;SDS011;2697;42.144;24.794;2022-09-28T03:38:45;26.63;;;15.93;;
5349;SDS011;2697;42.144;24.794;2022-09-28T03:41:11;30.43;;;13.70;;
5349;SDS011;2697;42.144;24.794;2022-09-28T03:43:36;27.70;;;15.90;;
5349;SDS011;2697;42.144;24.794;2022-09-28T03:46:02;24.33;;;13.03;;
5349;SDS011;2697;42.144;24.794;2022-09-28T03:48:29;29.90;;;13.50;;
5349;SDS011;2697;42.144;24.794;2022-09-28T03:50:56;27.97;;;15.10;;
5349;SDS011;2697;42.144;24.794;2022-09-28T03:53:23;26.00;;;12.50;;
5349;SDS011;2697;42.144;24.794;2022-09-28T03:55:49;19.03;;;10.70;;
5349;SDS011;2697;42.144;24.794;2022-09-28T03:58:17;24.00;;;11.33;;
5349;SDS011;2697;42.144;24.794;2022-09-28T04:00:46;22.17;;;11.90;;
5349;SDS011;2697;42.144;24.794;2022-09-28T04:03:12;22.83;;;11.53;;
5349;SDS011;2697;42.144;24.794;2022-09-28T04:05:37;30.90;;;11.63;;
5349;SDS011;2697;42.144;24.794;2022-09-28T04:08:03;22.97;;;10.80;;
5349;SDS011;2697;42.144;24.794;2022-09-28T04:10:29;18.60;;;10.27;;
5349;SDS011;2697;42.144;24.794;2022-09-28T04:12:54;25.23;;;12.73;;
5349;SDS011;2697;42.144;24.794;2022-09-28T04:15:23;16.30;;;10.60;;
5349;SDS011;2697;42.144;24.794;2022-09-28T04:17:49;22.13;;;11.60;;
5349;SDS011;2697;42.144;24.794;2022-09-28T04:20:15;23.63;;;11.50;;
5349;SDS011;2697;42.144;24.794;2022-09-28T04:22:40;25.00;;;10.90;;
5349;SDS011;2697;42.144;24.794;2022-09-28T04:25:06;23.47;;;11.50;;
5349;SDS011;2697;42.144;24.794;2022-09-28T04:27:31;20.53;;;11.87;;
5349;SDS011;2697;42.144;24.794;2022-09-28T04:30:15;16.73;;;10.40;;
5349;SDS011;2697;42.144;24.794;2022-09-28T04:32:41;20.80;;;11.17;;
5349;SDS011;2697;42.144;24.794;2022-09-28T04:35:07;24.30;;;9.30;;
5349;SDS011;2697;42.144;24.794;2022-09-28T04:37:34;20.83;;;10.70;;
5349;SDS011;2697;42.144;24.794;2022-09-28T04:40:00;21.83;;;9.93;;
5349;SDS011;2697;42.144;24.794;2022-09-28T04:42:25;20.87;;;10.53;;
5349;SDS011;2697;42.144;24.794;2022-09-28T04:44:51;23.73;;;9.70;;
5349;SDS011;2697;42.144;24.794;2022-09-28T04:47:16;19.37;;;7.77;;
5349;SDS011;2697;42.144;24.794;2022-09-28T04:49:41;18.77;;;8.17;;
5349;SDS011;2697;42.144;24.794;2022-09-28T04:52:07;21.63;;;8.30;;
5349;SDS011;2697;42.144;24.794;2022-09-28T04:54:32;21.07;;;8.27;;
5349;SDS011;2697;42.144;24.794;2022-09-28T04:56:59;17.90;;;8.67;;
5349;SDS011;2697;42.144;24.794;2022-09-28T04:59:25;18.33;;;9.10;;
5349;SDS011;2697;42.144;24.794;2022-09-28T05:01:51;22.47;;;9.10;;
5349;SDS011;2697;42.144;24.794;2022-09-28T05:04:18;18.90;;;8.80;;
5349;SDS011;2697;42.144;24.794;2022-09-28T05:06:43;22.13;;;9.30;;
5349;SDS011;2697;42.144;24.794;2022-09-28T05:09:08;21.90;;;8.53;;
5349;SDS011;2697;42.144;24.794;2022-09-28T05:11:34;18.67;;;7.10;;
5349;SDS011;2697;42.144;24.794;2022-09-28T05:13:59;11.43;;;6.00;;
5349;SDS011;2697;42.144;24.794;2022-09-28T05:16:25;8.00;;;5.70;;
5349;SDS011;2697;42.144;24.794;2022-09-28T05:18:54;11.93;;;5.20;;
5349;SDS011;2697;42.144;24.794;2022-09-28T05:21:20;8.10;;;5.17;;
5349;SDS011;2697;42.144;24.794;2022-09-28T05:23:48;15.67;;;4.30;;
5349;SDS011;2697;42.144;24.794;2022-09-28T05:26:14;8.53;;;4.20;;
5349;SDS011;2697;42.144;24.794;2022-09-28T05:28:39;6.70;;;4.40;;
5349;SDS011;2697;42.144;24.794;2022-09-28T05:31:04;12.20;;;4.53;;
5349;SDS011;2697;42.144;24.794;2022-09-28T05:33:31;8.10;;;4.80;;
5349;SDS011;2697;42.144;24.794;2022-09-28T05:35:57;8.97;;;4.70;;
5349;SDS011;2697;42.144;24.794;2022-09-28T05:38:24;16.10;;;4.30;;
5349;SDS011;2697;42.144;24.794;2022-09-28T05:40:49;7.07;;;4.00;;
5349;SDS011;2697;42.144;24.794;2022-09-28T05:43:15;13.40;;;3.37;;
5349;SDS011;2697;42.144;24.794;2022-09-28T05:45:40;9.68;;;3.03;;
5349;SDS011;2697;42.144;24.794;2022-09-28T05:48:05;10.52;;;4.38;;
5349;SDS011;2697;42.144;24.794;2022-09-28T05:50:31;7.03;;;3.50;;
5349;SDS011;2697;42.144;24.794;2022-09-28T05:52:57;8.40;;;4.47;;
5349;SDS011;2697;42.144;24.794;2022-09-28T05:55:23;7.93;;;3.70;;
5349;SDS011;2697;42.144;24.794;2022-09-28T05:57:49;9.13;;;3.80;;
5349;SDS011;2697;42.144;24.794;2022-09-28T06:00:14;7.73;;;4.20;;
5349;SDS011;2697;42.144;24.794;2022-09-28T06:02:39;7.60;;;4.53;;
5349;SDS011;2697;42.144;24.794;2022-09-28T06:05:05;6.90;;;3.70;;
5349;SDS011;2697;42.144;24.794;2022-09-28T06:07:31;6.90;;;4.47;;
5349;SDS011;2697;42.144;24.794;2022-09-28T06:09:56;9.77;;;4.57;;
5349;SDS011;2697;42.144;24.794;2022-09-28T06:12:22;14.30;;;4.13;;
5349;SDS011;2697;42.144;24.794;2022-09-28T06:14:47;8.30;;;4.80;;
5349;SDS011;2697;42.144;24.794;2022-09-28T06:17:13;9.77;;;4.03;;
5349;SDS011;2697;42.144;24.794;2022-09-28T06:19:38;14.33;;;4.60;;
5349;SDS011;2697;42.144;24.794;2022-09-28T06:22:04;10.27;;;4.07;;
5349;SDS011;2697;42.144;24.794;2022-09-28T06:24:29;13.87;;;4.50;;
5349;SDS011;2697;42.144;24.794;2022-09-28T06:26:55;13.10;;;5.00;;
5349;SDS011;2697;42.144;24.794;2022-09-28T06:29:20;8.23;;;4.13;;
5349;SDS011;2697;42.144;24.794;2022-09-28T06:31:46;15.43;;;4.13;;
5349;SDS011;2697;42.144;24.794;2022-09-28T06:34:11;10.27;;;4.53;;
5349;SDS011;2697;42.144;24.794;2022-09-28T06:36:38;12.33;;;4.47;;
5349;SDS011;2697;42.144;24.794;2022-09-28T06:39:04;8.30;;;3.70;;
5349;SDS011;2697;42.144;24.794;2022-09-28T06:41:30;12.40;;;3.90;;
5349;SDS011;2697;42.144;24.794;2022-09-28T06:43:55;9.33;;;4.20;;
5349;SDS011;2697;42.144;24.794;2022-09-28T06:46:21;7.03;;;3.50;;
5349;SDS011;2697;42.144;24.794;2022-09-28T06:48:46;9.73;;;4.67;;
5349;SDS011;2697;42.144;24.794;2022-09-28T06:51:12;7.07;;;4.10;;
5349;SDS011;2697;42.144;24.794;2022-09-28T06:53:38;8.87;;;3.80;;
5349;SDS011;2697;42.144;24.794;2022-09-28T06:56:04;8.03;;;3.30;;
5349;SDS011;2697;42.144;24.794;2022-09-28T06:58:32;5.70;;;3.50;;
5349;SDS011;2697;42.144;24.794;2022-09-28T07:00:58;5.40;;;2.97;;
5349;SDS011;2697;42.144;24.794;2022-09-28T07:03:23;7.17;;;3.67;;
5349;SDS011;2697;42.144;24.794;2022-09-28T07:05:49;6.93;;;2.53;;
5349;SDS011;2697;42.144;24.794;2022-09-28T07:08:18;12.00;;;3.70;;
5349;SDS011;2697;42.144;24.794;2022-09-28T07:10:46;4.83;;;2.97;;
5349;SDS011;2697;42.144;24.794;2022-09-28T07:13:13;4.33;;;2.67;;
5349;SDS011;2697;42.144;24.794;2022-09-28T07:15:40;5.57;;;3.47;;
5349;SDS011;2697;42.144;24.794;2022-09-28T07:18:07;8.40;;;4.13;;
5349;SDS011;2697;42.144;24.794;2022-09-28T07:20:34;9.03;;;3.70;;
5349;SDS011;2697;42.144;24.794;2022-09-28T07:23:02;5.20;;;3.53;;
5349;SDS011;2697;42.144;24.794;2022-09-28T07:25:29;12.53;;;4.27;;
5349;SDS011;2697;42.144;24.794;2022-09-28T07:27:59;4.07;;;3.27;;
5349;SDS011;2697;42.144;24.794;2022-09-28T07:30:25;8.90;;;3.40;;
5349;SDS011;2697;42.144;24.794;2022-09-28T07:32:52;6.33;;;2.93;;
5349;SDS011;2697;42.144;24.794;2022-09-28T07:35:18;6.73;;;3.50;;
5349;SDS011;2697;42.144;24.794;2022-09-28T07:37:44;8.97;;;3.63;;
5349;SDS011;2697;42.144;24.794;2022-09-28T07:40:09;10.73;;;3.30;;
5349;SDS011;2697;42.144;24.794;2022-09-28T07:42:53;13.43;;;3.83;;
5349;SDS011;2697;42.144;24.794;2022-09-28T07:45:19;15.03;;;3.20;;
5349;SDS011;2697;42.144;24.794;2022-09-28T07:47:48;21.23;;;4.53;;
5349;SDS011;2697;42.144;24.794;2022-09-28T07:50:14;11.07;;;3.57;;
5349;SDS011;2697;42.144;24.794;2022-09-28T07:52:40;13.63;;;3.90;;
5349;SDS011;2697;42.144;24.794;2022-09-28T07:55:06;10.37;;;2.73;;
5349;SDS011;2697;42.144;24.794;2022-09-28T07:57:32;11.57;;;3.30;;
5349;SDS011;2697;42.144;24.794;2022-09-28T07:59:57;14.50;;;3.37;;
5349;SDS011;2697;42.144;24.794;2022-09-28T08:02:24;6.33;;;3.07;;
5349;SDS011;2697;42.144;24.794;2022-09-28T08:04:50;4.50;;;3.80;;
5349;SDS011;2697;42.144;24.794;2022-09-28T08:07:16;16.73;;;4.50;;
5349;SDS011;2697;42.144;24.794;2022-09-28T08:09:43;10.73;;;3.30;;
5349;SDS011;2697;42.144;24.794;2022-09-28T08:12:10;6.03;;;2.67;;
5349;SDS011;2697;42.144;24.794;2022-09-28T08:14:37;5.00;;;3.03;;
5349;SDS011;2697;42.144;24.794;2022-09-28T08:17:03;5.63;;;2.90;;
5349;SDS011;2697;42.144;24.794;2022-09-28T08:19:30;7.73;;;2.30;;
5349;SDS011;2697;42.144;24.794;2022-09-28T08:22:18;5.07;;;2.73;;
5349;SDS011;2697;42.144;24.794;2022-09-28T08:24:44;4.90;;;2.57;;
5349;SDS011;2697;42.144;24.794;2022-09-28T08:27:11;6.93;;;3.23;;
5349;SDS011;2697;42.144;24.794;2022-09-28T08:29:37;4.97;;;3.50;;
5349;SDS011;2697;42.144;24.794;2022-09-28T08:32:03;7.10;;;3.00;;
5349;SDS011;2697;42.144;24.794;2022-09-28T08:34:32;15.90;;;3.27;;
5349;SDS011;2697;42.144;24.794;2022-09-28T08:37:00;12.53;;;3.07;;
5349;SDS011;2697;42.144;24.794;2022-09-28T08:39:26;5.93;;;3.57;;
5349;SDS011;2697;42.144;24.794;2022-09-28T08:44:31;5.37;;;3.13;;
5349;SDS011;2697;42.144;24.794;2022-09-28T08:47:06;13.67;;;2.90;;
5349;SDS011;2697;42.144;24.794;2022-09-28T08:50:00;2.97;;;2.77;;
5349;SDS011;2697;42.144;24.794;2022-09-28T08:52:30;10.00;;;3.70;;
5349;SDS011;2697;42.144;24.794;2022-09-28T08:55:03;5.63;;;3.00;;
5349;SDS011;2697;42.144;24.794;2022-09-28T08:57:34;8.43;;;2.80;;
5349;SDS011;2697;42.144;24.794;2022-09-28T09:00:13;11.10;;;2.70;;
5349;SDS011;2697;42.144;24.794;2022-09-28T09:03:02;18.80;;;2.70;;
5349;SDS011;2697;42.144;24.794;2022-09-28T09:05:49;6.73;;;2.87;;
5349;SDS011;2697;42.144;24.794;2022-09-28T09:08:40;7.13;;;2.67;;
5349;SDS011;2697;42.144;24.794;2022-09-28T09:16:43;12.00;;;2.00;;
5349;SDS011;2697;42.144;24.794;2022-09-28T09:19:53;9.97;;;2.50;;
5349;SDS011;2697;42.144;24.794;2022-09-28T09:30:05;3.00;;;2.10;;
5349;SDS011;2697;42.144;24.794;2022-09-28T09:36:00;7.73;;;2.50;;
5349;SDS011;2697;42.144;24.794;2022-09-28T09:42:13;12.03;;;2.13;;
5349;SDS011;2697;42.144;24.794;2022-09-28T09:55:01;4.27;;;1.80;;
5349;SDS011;2697;42.144;24.794;2022-09-28T09:57:31;4.37;;;3.53;;
5349;SDS011;2697;42.144;24.794;2022-09-28T10:00:03;5.50;;;2.33;;
5349;SDS011;2697;42.144;24.794;2022-09-28T10:02:35;3.63;;;2.33;;
5349;SDS011;2697;42.144;24.794;2022-09-28T10:05:13;5.50;;;2.30;;
5349;SDS011;2697;42.144;24.794;2022-09-28T10:10:35;6.93;;;1.97;;
5349;SDS011;2697;42.144;24.794;2022-09-28T10:13:05;9.20;;;2.10;;
5349;SDS011;2697;42.144;24.794;2022-09-28T10:15:31;14.53;;;1.90;;
5349;SDS011;2697;42.144;24.794;2022-09-28T10:18:02;12.93;;;2.40;;
5349;SDS011;2697;42.144;24.794;2022-09-28T10:20:36;12.73;;;2.83;;
5349;SDS011;2697;42.144;24.794;2022-09-28T10:23:04;13.30;;;2.20;;
5349;SDS011;2697;42.144;24.794;2022-09-28T10:25:35;6.83;;;2.40;;
5349;SDS011;2697;42.144;24.794;2022-09-28T10:28:02;15.13;;;4.27;;
5349;SDS011;2697;42.144;24.794;2022-09-28T10:30:31;3.67;;;2.63;;
5349;SDS011;2697;42.144;24.794;2022-09-28T10:33:25;11.30;;;2.90;;
5349;SDS011;2697;42.144;24.794;2022-09-28T10:35:55;28.70;;;3.07;;
5349;SDS011;2697;42.144;24.794;2022-09-28T10:38:22;4.53;;;2.63;;
5349;SDS011;2697;42.144;24.794;2022-09-28T10:40:52;15.33;;;3.13;;
5349;SDS011;2697;42.144;24.794;2022-09-28T10:43:26;10.90;;;2.43;;
5349;SDS011;2697;42.144;24.794;2022-09-28T10:46:13;3.90;;;2.17;;
5349;SDS011;2697;42.144;24.794;2022-09-28T10:48:52;5.83;;;2.07;;
5349;SDS011;2697;42.144;24.794;2022-09-28T10:51:18;6.47;;;1.90;;
5349;SDS011;2697;42.144;24.794;2022-09-28T10:54:00;6.73;;;1.87;;
5349;SDS011;2697;42.144;24.794;2022-09-28T10:56:27;6.87;;;2.73;;
5349;SDS011;2697;42.144;24.794;2022-09-28T10:58:59;6.53;;;2.00;;
5349;SDS011;2697;42.144;24.794;2022-09-28T11:01:28;3.20;;;2.10;;
5349;SDS011;2697;42.144;24.794;2022-09-28T11:04:04;4.77;;;2.03;;
5349;SDS011;2697;42.144;24.794;2022-09-28T11:06:35;2.43;;;2.03;;
5349;SDS011;2697;42.144;24.794;2022-09-28T11:09:06;8.30;;;2.63;;
5349;SDS011;2697;42.144;24.794;2022-09-28T11:11:46;3.23;;;2.10;;
5349;SDS011;2697;42.144;24.794;2022-09-28T11:14:33;3.77;;;1.80;;
5349;SDS011;2697;42.144;24.794;2022-09-28T11:17:23;9.13;;;1.80;;
5349;SDS011;2697;42.144;24.794;2022-09-28T11:19:50;5.23;;;2.03;;
5349;SDS011;2697;42.144;24.794;2022-09-28T11:27:40;2.57;;;2.10;;
5349;SDS011;2697;42.144;24.794;2022-09-28T11:30:49;3.80;;;2.07;;
5349;SDS011;2697;42.144;24.794;2022-09-28T11:33:04;3.00;;;2.00;;
5349;SDS011;2697;42.144;24.794;2022-09-28T11:44:24;3.70;;;2.30;;
5349;SDS011;2697;42.144;24.794;2022-09-28T11:49:22;3.23;;;2.20;;
5349;SDS011;2697;42.144;24.794;2022-09-28T11:51:55;12.77;;;2.20;;
5349;SDS011;2697;42.144;24.794;2022-09-28T11:54:31;20.77;;;2.70;;
5349;SDS011;2697;42.144;24.794;2022-09-28T11:57:04;6.23;;;2.33;;
5349;SDS011;2697;42.144;24.794;2022-09-28T11:59:44;3.27;;;2.00;;
5349;SDS011;2697;42.144;24.794;2022-09-28T12:02:18;11.67;;;2.03;;
5349;SDS011;2697;42.144;24.794;2022-09-28T12:04:53;8.30;;;2.10;;
5349;SDS011;2697;42.144;24.794;2022-09-28T12:12:34;5.93;;;1.73;;
5349;SDS011;2697;42.144;24.794;2022-09-28T12:15:25;1.87;;;1.50;;
5349;SDS011;2697;42.144;24.794;2022-09-28T12:17:54;3.17;;;2.00;;
5349;SDS011;2697;42.144;24.794;2022-09-28T12:23:34;2.73;;;1.43;;
5349;SDS011;2697;42.144;24.794;2022-09-28T12:26:08;4.63;;;1.87;;
5349;SDS011;2697;42.144;24.794;2022-09-28T12:28:48;10.37;;;1.83;;
5349;SDS011;2697;42.144;24.794;2022-09-28T12:31:52;4.53;;;2.20;;
5349;SDS011;2697;42.144;24.794;2022-09-28T12:34:27;5.80;;;2.00;;
5349;SDS011;2697;42.144;24.794;2022-09-28T12:48:18;3.10;;;1.40;;
5349;SDS011;2697;42.144;24.794;2022-09-28T12:50:48;12.17;;;1.63;;
5349;SDS011;2697;42.144;24.794;2022-09-28T12:56:02;3.90;;;1.73;;
5349;SDS011;2697;42.144;24.794;2022-09-28T13:04:07;8.93;;;1.80;;
5349;SDS011;2697;42.144;24.794;2022-09-28T13:06:51;3.43;;;1.07;;
5349;SDS011;2697;42.144;24.794;2022-09-28T13:09:39;2.47;;;1.70;;
5349;SDS011;2697;42.144;24.794;2022-09-28T13:15:32;11.93;;;1.70;;
5349;SDS011;2697;42.144;24.794;2022-09-28T13:18:07;2.10;;;1.63;;
5349;SDS011;2697;42.144;24.794;2022-09-28T13:28:55;3.50;;;1.53;;
5349;SDS011;2697;42.144;24.794;2022-09-28T13:31:28;14.17;;;2.23;;
5349;SDS011;2697;42.144;24.794;2022-09-28T13:33:57;6.63;;;1.50;;
5349;SDS011;2697;42.144;24.794;2022-09-28T13:38:57;12.63;;;2.60;;
5349;SDS011;2697;42.144;24.794;2022-09-28T13:41:28;3.10;;;1.60;;
5349;SDS011;2697;42.144;24.794;2022-09-28T13:57:42;2.60;;;1.77;;
5349;SDS011;2697;42.144;24.794;2022-09-28T14:00:15;5.43;;;1.70;;
5349;SDS011;2697;42.144;24.794;2022-09-28T14:03:22;3.17;;;2.20;;
5349;SDS011;2697;42.144;24.794;2022-09-28T14:08:32;3.30;;;1.60;;
5349;SDS011;2697;42.144;24.794;2022-09-28T14:16:38;4.60;;;2.13;;
5349;SDS011;2697;42.144;24.794;2022-09-28T14:22:22;5.00;;;1.83;;
5349;SDS011;2697;42.144;24.794;2022-09-28T14:30:32;2.47;;;1.47;;
5349;SDS011;2697;42.144;24.794;2022-09-28T14:35:44;5.77;;;1.70;;
5349;SDS011;2697;42.144;24.794;2022-09-28T14:38:18;6.37;;;1.97;;
5349;SDS011;2697;42.144;24.794;2022-09-28T14:43:57;6.43;;;2.27;;
5349;SDS011;2697;42.144;24.794;2022-09-28T14:46:29;12.43;;;2.13;;
5349;SDS011;2697;42.144;24.794;2022-09-28T14:54:26;3.37;;;2.00;;
5349;SDS011;2697;42.144;24.794;2022-09-28T14:56:57;19.73;;;2.93;;
5349;SDS011;2697;42.144;24.794;2022-09-28T14:59:37;16.00;;;2.57;;
5349;SDS011;2697;42.144;24.794;2022-09-28T15:04:42;9.70;;;2.03;;
5349;SDS011;2697;42.144;24.794;2022-09-28T15:07:56;4.67;;;2.37;;
5349;SDS011;2697;42.144;24.794;2022-09-28T15:12:59;16.83;;;2.53;;
5349;SDS011;2697;42.144;24.794;2022-09-28T15:15:32;7.63;;;3.00;;
5349;SDS011;2697;42.144;24.794;2022-09-28T15:18:07;3.80;;;1.93;;
5349;SDS011;2697;42.144;24.794;2022-09-28T15:20:38;5.90;;;1.80;;
5349;SDS011;2697;42.144;24.794;2022-09-28T15:29:18;9.17;;;3.07;;
5349;SDS011;2697;42.144;24.794;2022-09-28T15:31:45;10.63;;;2.93;;
5349;SDS011;2697;42.144;24.794;2022-09-28T15:34:25;9.60;;;3.00;;
5349;SDS011;2697;42.144;24.794;2022-09-28T15:37:13;13.63;;;3.10;;
5349;SDS011;2697;42.144;24.794;2022-09-28T15:39:41;11.00;;;2.97;;
5349;SDS011;2697;42.144;24.794;2022-09-28T15:42:08;4.37;;;2.47;;
5349;SDS011;2697;42.144;24.794;2022-09-28T15:44:34;15.97;;;2.47;;
5349;SDS011;2697;42.144;24.794;2022-09-28T15:47:08;9.27;;;2.87;;
5349;SDS011;2697;42.144;24.794;2022-09-28T15:49:36;6.93;;;2.53;;
5349;SDS011;2697;42.144;24.794;2022-09-28T15:52:20;47.43;;;3.47;;
5349;SDS011;2697;42.144;24.794;2022-09-28T15:54:50;7.30;;;2.00;;
5349;SDS011;2697;42.144;24.794;2022-09-28T16:00:03;16.47;;;2.90;;
5349;SDS011;2697;42.144;24.794;2022-09-28T16:02:31;12.67;;;2.67;;
5349;SDS011;2697;42.144;24.794;2022-09-28T16:04:57;10.30;;;2.97;;
5349;SDS011;2697;42.144;24.794;2022-09-28T16:15:06;12.80;;;3.63;;
5349;SDS011;2697;42.144;24.794;2022-09-28T16:17:38;17.03;;;4.27;;
5349;SDS011;2697;42.144;24.794;2022-09-28T16:20:20;10.80;;;4.07;;
5349;SDS011;2697;42.144;24.794;2022-09-28T16:22:46;9.80;;;4.17;;
5349;SDS011;2697;42.144;24.794;2022-09-28T16:25:15;27.73;;;8.60;;
5349;SDS011;2697;42.144;24.794;2022-09-28T16:27:44;19.70;;;4.47;;
5349;SDS011;2697;42.144;24.794;2022-09-28T16:30:15;13.33;;;4.50;;
5349;SDS011;2697;42.144;24.794;2022-09-28T16:35:31;28.97;;;5.27;;
5349;SDS011;2697;42.144;24.794;2022-09-28T16:38:14;21.63;;;6.63;;
5349;SDS011;2697;42.144;24.794;2022-09-28T16:40:41;20.90;;;7.70;;
5349;SDS011;2697;42.144;24.794;2022-09-28T16:43:15;27.47;;;4.77;;
5349;SDS011;2697;42.144;24.794;2022-09-28T16:45:44;20.07;;;5.43;;
5349;SDS011;2697;42.144;24.794;2022-09-28T16:48:13;30.40;;;6.90;;
5349;SDS011;2697;42.144;24.794;2022-09-28T16:50:43;9.53;;;4.70;;
5349;SDS011;2697;42.144;24.794;2022-09-28T16:55:59;46.90;;;4.43;;
5349;SDS011;2697;42.144;24.794;2022-09-28T16:58:25;12.93;;;4.00;;
5349;SDS011;2697;42.144;24.794;2022-09-28T17:00:51;13.00;;;4.20;;
5349;SDS011;2697;42.144;24.794;2022-09-28T17:03:18;23.27;;;6.93;;
5349;SDS011;2697;42.144;24.794;2022-09-28T17:05:45;6.63;;;4.67;;
5349;SDS011;2697;42.144;24.794;2022-09-28T17:08:16;20.13;;;5.70;;
5349;SDS011;2697;42.144;24.794;2022-09-28T17:13:18;19.97;;;5.27;;
5349;SDS011;2697;42.144;24.794;2022-09-28T17:15:45;8.33;;;4.40;;
5349;SDS011;2697;42.144;24.794;2022-09-28T17:18:15;7.00;;;4.00;;
5349;SDS011;2697;42.144;24.794;2022-09-28T17:20:43;14.73;;;4.10;;
5349;SDS011;2697;42.144;24.794;2022-09-28T17:23:12;13.20;;;4.33;;
5349;SDS011;2697;42.144;24.794;2022-09-28T17:25:38;15.17;;;4.63;;
5349;SDS011;2697;42.144;24.794;2022-09-28T17:28:04;9.10;;;5.13;;
5349;SDS011;2697;42.144;24.794;2022-09-28T17:30:30;12.70;;;3.80;;
5349;SDS011;2697;42.144;24.794;2022-09-28T17:32:55;10.77;;;4.57;;
5349;SDS011;2697;42.144;24.794;2022-09-28T17:35:22;16.73;;;5.60;;
5349;SDS011;2697;42.144;24.794;2022-09-28T17:37:48;16.30;;;4.30;;
5349;SDS011;2697;42.144;24.794;2022-09-28T17:40:24;10.93;;;4.37;;
5349;SDS011;2697;42.144;24.794;2022-09-28T17:42:52;11.73;;;4.50;;
5349;SDS011;2697;42.144;24.794;2022-09-28T17:45:20;7.73;;;3.87;;
5349;SDS011;2697;42.144;24.794;2022-09-28T17:47:52;14.00;;;4.40;;
5349;SDS011;2697;42.144;24.794;2022-09-28T17:50:20;12.67;;;5.37;;
5349;SDS011;2697;42.144;24.794;2022-09-28T17:52:50;34.23;;;10.33;;
5349;SDS011;2697;42.144;24.794;2022-09-28T17:55:24;31.47;;;9.83;;
5349;SDS011;2697;42.144;24.794;2022-09-28T17:57:54;30.97;;;9.03;;
5349;SDS011;2697;42.144;24.794;2022-09-28T18:00:20;26.60;;;10.53;;
5349;SDS011;2697;42.144;24.794;2022-09-28T18:02:54;24.80;;;7.77;;
5349;SDS011;2697;42.144;24.794;2022-09-28T18:05:20;31.00;;;7.33;;
5349;SDS011;2697;42.144;24.794;2022-09-28T18:07:48;25.03;;;11.87;;
5349;SDS011;2697;42.144;24.794;2022-09-28T18:10:18;21.77;;;6.00;;
5349;SDS011;2697;42.144;24.794;2022-09-28T18:12:47;23.37;;;7.97;;
5349;SDS011;2697;42.144;24.794;2022-09-28T18:15:13;40.53;;;6.53;;
5349;SDS011;2697;42.144;24.794;2022-09-28T18:17:39;30.23;;;12.50;;
5349;SDS011;2697;42.144;24.794;2022-09-28T18:20:05;23.33;;;9.47;;
5349;SDS011;2697;42.144;24.794;2022-09-28T18:22:32;20.30;;;7.77;;
5349;SDS011;2697;42.144;24.794;2022-09-28T18:24:58;20.80;;;8.10;;
5349;SDS011;2697;42.144;24.794;2022-09-28T18:27:23;20.57;;;8.37;;
5349;SDS011;2697;42.144;24.794;2022-09-28T18:29:49;22.17;;;7.80;;
5349;SDS011;2697;42.144;24.794;2022-09-28T18:32:14;26.93;;;6.40;;
5349;SDS011;2697;42.144;24.794;2022-09-28T18:34:40;13.00;;;5.20;;
5349;SDS011;2697;42.144;24.794;2022-09-28T18:37:05;30.13;;;5.87;;